createdAt,value
2022-10-01T00:00:14.039Z,62.20
2022-10-01T00:01:13.631Z,61.90
2022-10-01T00:02:13.627Z,61.80
2022-10-01T00:03:13.981Z,61.80
2022-10-01T00:04:13.004Z,62.10
2022-10-01T00:05:28.130Z,61.90
2022-10-01T00:06:18.038Z,61.90
2022-10-01T00:07:13.003Z,62.10
2022-10-01T00:08:12.846Z,61.90
2022-10-01T00:09:13.742Z,62.20
2022-10-01T00:10:13.714Z,62.30
2022-10-01T00:11:13.845Z,62.50
2022-10-01T00:12:13.675Z,62.50
2022-10-01T00:13:13.852Z,62.30
2022-10-01T00:14:13.965Z,62.40
2022-10-01T00:15:13.744Z,62.40
2022-10-01T00:16:14.042Z,62.00
2022-10-01T00:17:13.458Z,62.50
2022-10-01T00:18:13.440Z,62.40
2022-10-01T00:19:14.263Z,62.30
2022-10-01T00:20:14.640Z,62.20
2022-10-01T00:21:13.817Z,62.40
2022-10-01T00:22:13.830Z,62.40
2022-10-01T00:23:13.792Z,62.10
2022-10-01T00:24:13.837Z,62.00
2022-10-01T00:25:14.390Z,62.00
2022-10-01T00:26:13.630Z,62.30
2022-10-01T00:27:13.708Z,62.10
2022-10-01T00:28:13.630Z,62.00
2022-10-01T00:29:13.606Z,62.20
2022-10-01T00:30:13.652Z,62.00
2022-10-01T00:31:13.752Z,62.30
2022-10-01T00:32:13.680Z,62.40
2022-10-01T00:33:13.745Z,62.40
2022-10-01T00:34:13.875Z,62.00
2022-10-01T00:35:13.867Z,61.80
2022-10-01T00:36:13.747Z,61.70
2022-10-01T00:37:13.752Z,61.60
2022-10-01T00:38:13.772Z,62.30
2022-10-01T00:39:13.851Z,62.00
2022-10-01T00:40:13.939Z,61.90
2022-10-01T00:41:13.323Z,62.20
2022-10-01T00:42:13.490Z,62.20
2022-10-01T00:43:13.896Z,61.60
2022-10-01T00:44:12.925Z,61.80
2022-10-01T00:45:12.886Z,62.10
2022-10-01T00:46:13.948Z,62.20
2022-10-01T00:47:13.246Z,62.40
2022-10-01T00:48:13.248Z,62.50
2022-10-01T00:49:13.296Z,61.90
2022-10-01T00:50:13.170Z,61.90
2022-10-01T00:51:13.343Z,62.00
2022-10-01T00:52:13.475Z,61.80
2022-10-01T00:53:13.316Z,62.30
2022-10-01T00:54:13.460Z,62.40
2022-10-01T00:55:13.491Z,61.50
2022-10-01T00:56:13.516Z,61.70
2022-10-01T00:57:13.559Z,62.00
2022-10-01T00:58:13.486Z,62.20
2022-10-01T01:00:13.532Z,62.20
2022-10-01T01:01:13.640Z,62.70
2022-10-01T01:02:13.663Z,63.10
2022-10-01T01:03:13.668Z,63.30
2022-10-01T01:04:13.561Z,63.80
2022-10-01T01:05:13.693Z,63.90
2022-10-01T01:06:13.765Z,64.40
2022-10-01T01:07:14.131Z,64.80
2022-10-01T01:08:13.236Z,65.40
2022-10-01T01:09:13.845Z,66.20
2022-10-01T01:10:12.887Z,66.80
2022-10-01T01:11:13.896Z,68.20
2022-10-01T01:12:13.736Z,68.70
2022-10-01T01:13:13.776Z,68.70
2022-10-01T01:14:14.134Z,69.70
2022-10-01T01:15:13.027Z,70.10
2022-10-01T01:16:12.955Z,70.90
2022-10-01T01:17:13.047Z,71.20
2022-10-01T01:18:17.923Z,72.30
2022-10-01T01:19:13.287Z,72.60
2022-10-01T01:20:13.224Z,73.80
2022-10-01T01:21:17.512Z,74.20
2022-10-01T01:22:13.455Z,75.30
2022-10-01T01:23:14.104Z,76.20
2022-10-01T01:24:13.444Z,76.60
2022-10-01T01:25:13.600Z,77.40
2022-10-01T01:26:13.753Z,77.20
2022-10-01T01:27:13.739Z,78.20
2022-10-01T01:28:13.737Z,79.20
2022-10-01T01:29:13.725Z,80.10
2022-10-01T01:30:13.646Z,80.80
2022-10-01T01:31:13.615Z,81.70
2022-10-01T01:32:14.996Z,81.90
2022-10-01T01:33:13.106Z,81.70
2022-10-01T01:34:13.059Z,82.00
2022-10-01T01:35:13.328Z,82.50
2022-10-01T01:36:13.416Z,82.80
2022-10-01T01:37:13.412Z,83.40
2022-10-01T01:38:13.290Z,84.00
2022-10-01T01:39:13.280Z,84.40
2022-10-01T01:40:13.647Z,84.70
2022-10-01T01:41:13.538Z,85.10
2022-10-01T01:43:35.015Z,85.40
2022-10-01T01:44:14.080Z,85.90
2022-10-01T01:45:13.069Z,85.90
2022-10-01T01:46:13.046Z,85.70
2022-10-01T01:47:13.221Z,86.20
2022-10-01T01:48:13.973Z,86.00
2022-10-01T01:49:12.986Z,86.20
2022-10-01T01:50:38.050Z,87.10
2022-10-01T01:51:13.439Z,87.40
2022-10-01T01:52:14.137Z,87.20
2022-10-01T01:53:13.247Z,87.20
2022-10-01T01:54:13.223Z,87.60
2022-10-01T01:55:13.419Z,87.40
2022-10-01T01:56:13.411Z,87.50
2022-10-01T01:57:13.343Z,87.70
2022-10-01T01:58:13.298Z,88.00
2022-10-01T01:59:13.559Z,87.90
2022-10-01T02:00:13.654Z,87.80
2022-10-01T02:01:13.932Z,87.90
2022-10-01T02:02:13.020Z,87.70
2022-10-01T02:03:13.476Z,87.40
2022-10-01T02:04:30.056Z,88.00
2022-10-01T02:05:13.559Z,87.90
2022-10-01T02:06:13.776Z,87.60
2022-10-01T02:07:13.858Z,87.90
2022-10-01T02:08:14.108Z,88.20
2022-10-01T02:09:13.453Z,88.00
2022-10-01T02:10:13.420Z,87.80
2022-10-01T02:11:13.437Z,88.10
2022-10-01T02:12:13.555Z,88.30
2022-10-01T02:13:13.730Z,88.10
2022-10-01T02:14:13.759Z,88.50
2022-10-01T02:15:13.871Z,88.00
2022-10-01T02:16:13.951Z,88.10
2022-10-01T02:17:13.071Z,88.10
2022-10-01T02:18:12.941Z,88.20
2022-10-01T02:19:12.921Z,87.90
2022-10-01T02:20:13.187Z,88.80
2022-10-01T02:21:13.167Z,88.70
2022-10-01T02:22:13.149Z,88.70
2022-10-01T02:23:13.077Z,89.40
2022-10-01T02:24:13.218Z,89.10
2022-10-01T02:25:13.226Z,89.20
2022-10-01T02:26:13.400Z,89.40
2022-10-01T02:27:13.757Z,89.10
2022-10-01T02:28:13.863Z,89.60
2022-10-01T02:29:13.091Z,89.50
2022-10-01T02:30:13.363Z,89.30
2022-10-01T02:31:14.023Z,89.70
2022-10-01T02:32:12.975Z,89.60
2022-10-01T02:33:12.860Z,89.90
2022-10-01T02:34:15.469Z,89.90
2022-10-01T02:35:13.253Z,89.70
2022-10-01T02:36:13.141Z,89.30
2022-10-01T02:37:13.351Z,89.10
2022-10-01T02:38:13.515Z,89.10
2022-10-01T02:39:13.451Z,88.70
2022-10-01T02:40:13.307Z,88.60
2022-10-01T02:41:13.328Z,88.10
2022-10-01T02:42:13.386Z,88.90
2022-10-01T02:43:13.422Z,89.50
2022-10-01T02:44:13.373Z,89.60
2022-10-01T02:45:13.457Z,90.20
2022-10-01T02:46:13.369Z,90.00
2022-10-01T02:47:13.397Z,89.70
2022-10-01T02:48:13.577Z,90.10
2022-10-01T02:49:13.481Z,90.00
2022-10-01T02:50:13.696Z,90.30
2022-10-01T02:51:13.642Z,89.90
2022-10-01T02:52:13.561Z,90.00
2022-10-01T02:53:13.568Z,89.90
2022-10-01T02:54:13.996Z,90.00
2022-10-01T02:55:13.233Z,90.50
2022-10-01T02:56:13.500Z,90.80
2022-10-01T02:57:13.523Z,90.70
2022-10-01T02:58:14.059Z,91.00
2022-10-01T02:59:13.093Z,91.20
2022-10-01T03:00:12.938Z,90.90
2022-10-01T03:01:12.911Z,91.00
2022-10-01T03:02:12.974Z,91.00
2022-10-01T03:03:13.119Z,91.20
2022-10-01T03:04:13.079Z,91.70
2022-10-01T03:05:12.957Z,91.60
2022-10-01T03:06:13.037Z,91.40
2022-10-01T03:07:13.255Z,91.50
2022-10-01T03:08:13.304Z,91.60
2022-10-01T03:09:13.288Z,92.30
2022-10-01T03:10:13.262Z,92.20
2022-10-01T03:11:13.207Z,91.80
2022-10-01T03:12:13.312Z,91.90
2022-10-01T03:13:13.423Z,92.30
2022-10-01T03:14:13.380Z,92.50
2022-10-01T03:15:13.469Z,92.90
2022-10-01T03:16:13.414Z,93.20
2022-10-01T03:17:13.441Z,93.50
2022-10-01T03:18:13.403Z,93.70
2022-10-01T03:19:13.324Z,93.40
2022-10-01T03:20:13.273Z,93.60
2022-10-01T03:21:13.422Z,93.50
2022-10-01T03:22:13.651Z,93.60
2022-10-01T03:23:13.718Z,94.20
2022-10-01T03:24:13.649Z,93.90
2022-10-01T03:25:13.648Z,93.80
2022-10-01T03:26:13.947Z,94.20
2022-10-01T03:27:13.117Z,94.10
2022-10-01T03:28:13.102Z,94.30
2022-10-01T03:29:13.509Z,94.80
2022-10-01T03:30:13.803Z,94.60
2022-10-01T03:31:14.070Z,94.60
2022-10-01T03:32:13.166Z,94.60
2022-10-01T03:33:12.977Z,94.30
2022-10-01T03:34:12.894Z,94.00
2022-10-01T03:35:13.925Z,93.80
2022-10-01T03:36:13.055Z,94.00
2022-10-01T03:37:12.999Z,94.40
2022-10-01T03:38:12.939Z,94.70
2022-10-01T03:39:13.277Z,94.50
2022-10-01T03:40:13.234Z,94.90
2022-10-01T03:41:13.161Z,94.70
2022-10-01T03:42:13.487Z,95.00
2022-10-01T03:43:13.529Z,94.90
2022-10-01T03:44:13.450Z,95.10
2022-10-01T03:45:13.486Z,95.30
2022-10-01T03:46:14.054Z,95.10
2022-10-01T03:47:13.745Z,95.20
2022-10-01T03:48:13.943Z,95.40
2022-10-01T03:49:13.420Z,95.10
2022-10-01T03:50:13.459Z,95.20
2022-10-01T03:51:16.674Z,95.10
2022-10-01T03:52:13.928Z,95.00
2022-10-01T03:53:12.934Z,95.00
2022-10-01T03:54:13.094Z,94.90
2022-10-01T03:55:13.177Z,94.80
2022-10-01T03:56:13.459Z,94.70
2022-10-01T03:57:14.439Z,95.10
2022-10-01T03:58:13.310Z,95.20
2022-10-01T03:59:13.227Z,95.20
2022-10-01T04:00:13.470Z,95.20
2022-10-01T04:01:13.897Z,95.50
2022-10-01T04:02:13.471Z,95.70
2022-10-01T04:03:13.638Z,95.40
2022-10-01T04:04:13.559Z,95.50
2022-10-01T04:05:13.861Z,96.70
2022-10-01T04:06:13.872Z,97.20
2022-10-01T04:07:13.838Z,97.20
2022-10-01T04:08:13.840Z,97.80
2022-10-01T04:09:14.086Z,97.90
2022-10-01T04:10:13.558Z,98.10
2022-10-01T04:11:13.564Z,98.30
2022-10-01T04:12:13.551Z,98.30
2022-10-01T04:13:13.690Z,98.40
2022-10-01T04:14:13.577Z,98.70
2022-10-01T04:15:13.653Z,98.70
2022-10-01T04:16:13.687Z,98.60
2022-10-01T04:17:13.964Z,98.60
2022-10-01T04:18:13.093Z,98.60
2022-10-01T04:19:14.800Z,98.50
2022-10-01T04:20:13.761Z,98.40
2022-10-01T04:21:13.675Z,98.60
2022-10-01T04:22:13.734Z,98.50
2022-10-01T04:23:13.916Z,98.40
2022-10-01T04:24:12.917Z,98.50
2022-10-01T04:25:12.806Z,98.30
2022-10-01T04:26:13.713Z,98.60
2022-10-01T04:27:13.936Z,98.50
2022-10-01T04:28:13.222Z,98.50
2022-10-01T04:29:13.233Z,98.50
2022-10-01T04:30:13.286Z,98.80
2022-10-01T04:31:13.549Z,98.90
2022-10-01T04:32:13.735Z,99.10
2022-10-01T04:33:13.887Z,99.20
2022-10-01T04:34:13.853Z,99.30
2022-10-01T04:35:13.919Z,99.40
2022-10-01T04:36:13.087Z,99.00
2022-10-01T04:37:13.251Z,99.30
2022-10-01T04:38:13.524Z,99.30
2022-10-01T04:39:13.601Z,98.70
2022-10-01T04:40:13.616Z,98.30
2022-10-01T04:41:13.481Z,98.10
2022-10-01T04:42:13.864Z,98.40
2022-10-01T04:43:14.204Z,98.10
2022-10-01T04:44:13.377Z,98.10
2022-10-01T04:45:13.250Z,97.80
2022-10-01T04:46:18.277Z,97.30
2022-10-01T04:47:13.286Z,97.50
2022-10-01T04:48:13.201Z,97.50
2022-10-01T04:49:13.155Z,97.90
2022-10-01T04:50:18.147Z,97.30
2022-10-01T04:51:13.482Z,96.90
2022-10-01T04:52:13.622Z,97.30
2022-10-01T04:53:13.831Z,97.30
2022-10-01T04:54:13.759Z,97.20
2022-10-01T04:55:13.711Z,97.60
2022-10-01T04:56:14.003Z,96.20
2022-10-01T04:57:12.912Z,95.60
2022-10-01T04:58:12.826Z,95.20
2022-10-01T04:59:14.049Z,94.70
2022-10-01T05:00:13.224Z,94.90
2022-10-01T05:01:13.310Z,95.00
2022-10-01T05:02:13.323Z,94.90
2022-10-01T05:03:14.199Z,95.00
2022-10-01T05:04:13.228Z,95.40
2022-10-01T05:05:13.348Z,95.30
2022-10-01T05:06:13.445Z,95.00
2022-10-01T05:07:13.985Z,94.80
2022-10-01T05:08:13.023Z,94.90
2022-10-01T05:09:13.021Z,95.20
2022-10-01T05:10:13.671Z,95.50
2022-10-01T05:11:14.298Z,95.60
2022-10-01T05:12:13.235Z,95.60
2022-10-01T05:13:13.491Z,95.20
2022-10-01T05:14:13.414Z,94.80
2022-10-01T05:15:13.340Z,94.60
2022-10-01T05:16:13.246Z,94.40
2022-10-01T05:17:13.239Z,95.40
2022-10-01T05:18:13.051Z,95.00
2022-10-01T05:19:13.140Z,94.50
2022-10-01T05:20:13.310Z,94.10
2022-10-01T05:21:13.370Z,93.70
2022-10-01T05:22:13.533Z,93.50
2022-10-01T05:23:13.514Z,93.80
2022-10-01T05:24:13.514Z,93.90
2022-10-01T05:25:13.708Z,93.80
2022-10-01T05:26:14.135Z,94.10
2022-10-01T05:27:13.048Z,94.00
2022-10-01T05:28:13.496Z,94.20
2022-10-01T05:29:13.101Z,93.70
2022-10-01T05:30:13.246Z,94.00
2022-10-01T05:31:13.224Z,93.70
2022-10-01T05:32:13.146Z,94.10
2022-10-01T05:33:13.368Z,94.10
2022-10-01T05:34:13.509Z,94.50
2022-10-01T05:35:15.150Z,94.70
2022-10-01T05:36:13.480Z,94.30
2022-10-01T05:37:13.619Z,94.40
2022-10-01T05:38:14.705Z,94.20
2022-10-01T05:39:13.960Z,94.70
2022-10-01T05:40:13.241Z,94.30
2022-10-01T05:41:13.448Z,94.20
2022-10-01T05:42:13.922Z,94.30
2022-10-01T05:43:12.923Z,94.10
2022-10-01T05:44:13.030Z,94.60
2022-10-01T05:45:13.302Z,94.80
2022-10-01T05:46:13.263Z,95.00
2022-10-01T05:47:14.022Z,95.10
2022-10-01T05:48:13.373Z,95.50
2022-10-01T05:49:13.470Z,95.60
2022-10-01T05:50:13.414Z,95.70
2022-10-01T05:51:13.590Z,95.80
2022-10-01T05:52:13.545Z,96.00
2022-10-01T05:53:15.287Z,96.00
2022-10-01T05:54:13.467Z,96.30
2022-10-01T05:55:13.299Z,96.40
2022-10-01T05:56:13.449Z,96.90
2022-10-01T05:57:13.854Z,96.70
2022-10-01T05:58:13.313Z,96.90
2022-10-01T05:59:13.463Z,96.90
2022-10-01T06:00:13.379Z,97.40
2022-10-01T06:01:13.994Z,97.40
2022-10-01T06:02:12.937Z,97.50
2022-10-01T06:03:13.260Z,97.50
2022-10-01T06:04:13.432Z,97.70
2022-10-01T06:05:13.497Z,98.00
2022-10-01T06:06:13.651Z,98.10
2022-10-01T06:07:13.747Z,98.40
2022-10-01T06:08:13.641Z,98.10
2022-10-01T06:09:13.804Z,97.90
2022-10-01T06:10:14.018Z,98.00
2022-10-01T06:11:13.238Z,98.20
2022-10-01T06:12:16.486Z,98.50
2022-10-01T06:13:14.085Z,98.70
2022-10-01T06:14:13.256Z,98.50
2022-10-01T06:15:13.270Z,98.30
2022-10-01T06:16:13.483Z,98.50
2022-10-01T06:17:13.651Z,98.80
2022-10-01T06:18:13.865Z,99.00
2022-10-01T06:19:14.173Z,99.40
2022-10-01T06:20:18.198Z,99.00
2022-10-01T06:21:13.177Z,99.10
2022-10-01T06:22:13.406Z,99.50
2022-10-01T06:23:13.791Z,99.60
2022-10-01T06:24:13.755Z,99.70
2022-10-01T06:25:13.703Z,99.80
2022-10-01T06:26:13.751Z,99.70
2022-10-01T06:27:13.934Z,99.60
2022-10-01T06:28:12.904Z,99.70
2022-10-01T06:29:13.081Z,99.70
2022-10-01T06:30:13.693Z,99.80
2022-10-01T06:31:13.694Z,99.80
2022-10-01T06:32:13.891Z,99.60
2022-10-01T06:33:13.306Z,99.90
2022-10-01T06:34:13.359Z,99.80
2022-10-01T06:35:18.336Z,100.00
2022-10-01T06:36:13.257Z,100.00
2022-10-01T06:37:13.372Z,100.00
2022-10-01T06:38:13.627Z,100.00
2022-10-01T06:39:13.577Z,100.00
2022-10-01T06:40:13.718Z,100.00
2022-10-01T06:41:13.832Z,100.00
2022-10-01T06:42:13.679Z,100.00
2022-10-01T06:43:13.981Z,100.00
2022-10-01T06:44:13.253Z,100.00
2022-10-01T06:45:13.194Z,100.00
2022-10-01T06:46:13.525Z,100.00
2022-10-01T06:47:13.817Z,100.00
2022-10-01T06:48:13.858Z,100.00
2022-10-01T06:49:13.783Z,100.00
2022-10-01T06:50:13.875Z,100.00
2022-10-01T06:51:13.814Z,100.00
2022-10-01T06:52:13.783Z,100.00
2022-10-01T06:53:13.889Z,100.00
2022-10-01T06:54:13.851Z,100.00
2022-10-01T06:55:16.673Z,100.00
2022-10-01T06:56:12.926Z,100.00
2022-10-01T06:57:13.494Z,100.00
2022-10-01T06:58:13.934Z,100.00
2022-10-01T06:59:12.887Z,100.00
2022-10-01T07:00:14.370Z,100.00
2022-10-01T07:01:13.733Z,100.00
2022-10-01T07:03:14.047Z,100.00
2022-10-01T07:04:13.169Z,100.00
2022-10-01T07:05:13.555Z,100.00
2022-10-01T07:06:13.717Z,100.00
2022-10-01T07:07:13.656Z,100.00
2022-10-01T07:08:13.853Z,100.00
2022-10-01T07:09:13.837Z,100.00
2022-10-01T07:10:13.956Z,100.00
2022-10-01T07:11:13.236Z,100.00
2022-10-01T07:12:13.243Z,100.00
2022-10-01T07:13:13.096Z,100.00
2022-10-01T07:14:13.086Z,100.00
2022-10-01T07:15:13.132Z,100.00
2022-10-01T07:16:58.892Z,100.00
2022-10-01T07:17:13.917Z,100.00
2022-10-01T07:18:12.842Z,99.90
2022-10-01T07:19:13.911Z,100.00
2022-10-01T07:20:12.778Z,100.00
2022-10-01T07:21:49.888Z,99.90
2022-10-01T07:22:16.326Z,100.00
2022-10-01T07:23:13.673Z,99.80
2022-10-01T07:24:14.253Z,99.90
2022-10-01T07:25:13.294Z,99.50
2022-10-01T07:26:18.510Z,99.40
2022-10-01T07:27:13.613Z,99.40
2022-10-01T07:28:13.954Z,99.40
2022-10-01T07:29:13.227Z,99.10
2022-10-01T07:30:13.371Z,98.90
2022-10-01T07:31:18.815Z,98.80
2022-10-01T07:32:13.934Z,99.20
2022-10-01T07:33:13.240Z,99.60
2022-10-01T07:34:13.301Z,99.80
2022-10-01T07:35:13.510Z,99.60
2022-10-01T07:36:13.841Z,99.90
2022-10-01T07:37:13.922Z,100.00
2022-10-01T07:38:12.933Z,100.00
2022-10-01T07:39:12.850Z,100.00
2022-10-01T07:40:13.801Z,100.00
2022-10-01T07:41:13.962Z,100.00
2022-10-01T07:42:12.979Z,100.00
2022-10-01T07:43:12.943Z,100.00
2022-10-01T07:44:12.973Z,100.00
2022-10-01T07:45:12.937Z,100.00
2022-10-01T07:46:12.934Z,100.00
2022-10-01T07:47:13.000Z,100.00
2022-10-01T07:48:12.879Z,100.00
2022-10-01T07:49:13.763Z,100.00
2022-10-01T07:50:13.740Z,100.00
2022-10-01T07:51:13.817Z,100.00
2022-10-01T07:52:13.955Z,100.00
2022-10-01T07:53:12.939Z,100.00
2022-10-01T07:54:12.864Z,100.00
2022-10-01T07:55:13.913Z,100.00
2022-10-01T07:56:12.879Z,100.00
2022-10-01T07:57:13.926Z,100.00
2022-10-01T07:58:13.039Z,100.00
2022-10-01T07:59:12.901Z,100.00
2022-10-01T08:00:12.924Z,100.00
2022-10-01T08:01:13.071Z,100.00
2022-10-01T08:02:13.292Z,100.00
2022-10-01T08:03:13.941Z,100.00
2022-10-01T08:04:12.765Z,100.00
2022-10-01T08:05:39.228Z,100.00
2022-10-01T08:06:13.213Z,100.00
2022-10-01T08:07:13.266Z,100.00
2022-10-01T08:08:13.250Z,100.00
2022-10-01T08:09:13.154Z,100.00
2022-10-01T08:10:13.081Z,100.00
2022-10-01T08:11:13.202Z,100.00
2022-10-01T08:12:13.106Z,100.00
2022-10-01T08:13:13.424Z,100.00
2022-10-01T08:14:13.493Z,100.00
2022-10-01T08:15:13.535Z,100.00
2022-10-01T08:16:13.683Z,100.00
2022-10-01T08:17:13.535Z,100.00
2022-10-01T08:18:13.403Z,100.00
2022-10-01T08:19:15.026Z,100.00
2022-10-01T08:20:12.899Z,100.00
2022-10-01T08:21:12.899Z,100.00
2022-10-01T08:22:12.960Z,100.00
2022-10-01T08:23:13.100Z,100.00
2022-10-01T08:24:13.120Z,100.00
2022-10-01T08:25:13.268Z,100.00
2022-10-01T08:26:13.651Z,100.00
2022-10-01T08:27:27.388Z,100.00
2022-10-01T08:28:30.066Z,100.00
2022-10-01T08:29:28.118Z,100.00
2022-10-01T08:30:15.756Z,100.00
2022-10-01T08:31:24.719Z,99.90
2022-10-01T08:32:13.950Z,100.00
2022-10-01T08:33:13.017Z,99.30
2022-10-01T08:34:13.098Z,99.00
2022-10-01T08:35:13.166Z,98.70
2022-10-01T08:36:13.571Z,99.00
2022-10-01T08:37:13.663Z,98.80
2022-10-01T08:38:13.795Z,98.70
2022-10-01T08:39:14.253Z,98.40
2022-10-01T08:40:13.605Z,98.20
2022-10-01T08:41:13.851Z,98.40
2022-10-01T08:42:13.944Z,98.40
2022-10-01T08:43:12.907Z,98.50
2022-10-01T08:44:12.869Z,98.20
2022-10-01T08:45:13.780Z,98.90
2022-10-01T08:46:14.147Z,98.50
2022-10-01T08:47:13.835Z,98.40
2022-10-01T08:48:14.090Z,98.30
2022-10-01T08:49:13.383Z,97.90
2022-10-01T08:50:45.026Z,97.70
2022-10-01T08:51:13.291Z,97.50
2022-10-01T08:52:13.352Z,97.80
2022-10-01T08:53:13.402Z,97.90
2022-10-01T08:54:13.446Z,97.40
2022-10-01T08:55:13.346Z,97.30
2022-10-01T08:56:13.183Z,97.30
2022-10-01T08:57:13.501Z,97.10
2022-10-01T08:58:13.750Z,97.10
2022-10-01T08:59:13.665Z,97.30
2022-10-01T09:00:13.547Z,96.60
2022-10-01T09:01:13.600Z,96.10
2022-10-01T09:02:13.551Z,95.60
2022-10-01T09:03:13.599Z,96.00
2022-10-01T09:04:13.923Z,95.90
2022-10-01T09:05:12.875Z,95.40
2022-10-01T09:06:14.015Z,95.20
2022-10-01T09:07:12.977Z,94.80
2022-10-01T09:08:13.022Z,95.00
2022-10-01T09:09:13.217Z,95.60
2022-10-01T09:10:24.148Z,95.30
2022-10-01T09:11:34.418Z,95.10
2022-10-01T09:12:49.483Z,94.50
2022-10-01T09:14:11.896Z,94.50
2022-10-01T09:15:13.146Z,94.70
2022-10-01T09:17:13.692Z,94.80
2022-10-01T09:18:48.520Z,95.00
2022-10-01T09:19:13.609Z,95.20
2022-10-01T09:20:13.680Z,95.20
2022-10-01T09:21:13.921Z,95.40
2022-10-01T09:22:27.120Z,95.00
2022-10-01T09:24:18.914Z,95.50
2022-10-01T09:25:13.305Z,95.20
2022-10-01T09:26:13.578Z,95.50
2022-10-01T09:27:14.226Z,95.10
2022-10-01T09:28:14.641Z,94.90
2022-10-01T09:29:48.070Z,94.80
2022-10-01T09:30:13.120Z,94.90
2022-10-01T09:31:28.637Z,94.60
2022-10-01T09:32:13.945Z,94.60
2022-10-01T09:33:12.911Z,94.70
2022-10-01T09:34:12.927Z,94.50
2022-10-01T09:36:42.681Z,94.10
2022-10-01T09:37:13.955Z,93.60
2022-10-01T09:38:12.906Z,93.40
2022-10-01T09:39:12.923Z,93.50
2022-10-01T09:40:12.878Z,93.30
2022-10-01T09:41:14.203Z,93.40
2022-10-01T09:42:22.537Z,93.00
2022-10-01T09:43:13.406Z,92.70
2022-10-01T09:44:17.978Z,92.90
2022-10-01T09:45:13.786Z,92.80
2022-10-01T09:46:13.957Z,92.40
2022-10-01T09:47:13.221Z,92.60
2022-10-01T09:48:13.139Z,92.20
2022-10-01T09:49:13.314Z,91.30
2022-10-01T09:50:18.615Z,90.80
2022-10-01T09:51:19.637Z,91.20
2022-10-01T09:53:25.103Z,91.40
2022-10-01T09:54:13.320Z,91.40
2022-10-01T09:56:00.003Z,92.10
2022-10-01T09:56:51.751Z,92.30
2022-10-01T09:57:14.005Z,92.30
2022-10-01T10:00:13.923Z,92.10
2022-10-01T10:01:13.086Z,91.40
2022-10-01T10:02:13.384Z,91.30
2022-10-01T10:03:13.954Z,91.80
2022-10-01T10:04:16.639Z,92.30
2022-10-01T10:05:13.600Z,92.30
2022-10-01T10:06:13.918Z,92.70
2022-10-01T10:07:55.974Z,93.80
2022-10-01T10:08:17.010Z,93.50
2022-10-01T10:09:12.992Z,93.30
2022-10-01T10:10:14.618Z,92.90
2022-10-01T10:11:19.061Z,93.30
2022-10-01T10:12:13.118Z,92.90
2022-10-01T10:13:13.070Z,93.40
2022-10-01T10:14:13.515Z,94.60
2022-10-01T10:15:13.464Z,95.30
2022-10-01T10:16:13.621Z,95.70
2022-10-01T10:17:13.612Z,96.00
2022-10-01T10:18:13.711Z,96.60
2022-10-01T10:19:15.529Z,96.50
2022-10-01T10:20:13.590Z,96.80
2022-10-01T10:21:13.666Z,96.70
2022-10-01T10:22:14.687Z,97.00
2022-10-01T10:23:13.833Z,97.20
2022-10-01T10:24:13.204Z,97.70
2022-10-01T10:25:13.251Z,98.30
2022-10-01T10:26:13.599Z,98.30
2022-10-01T10:27:14.089Z,98.90
2022-10-01T10:28:13.495Z,99.10
2022-10-01T10:29:13.648Z,99.40
2022-10-01T10:30:13.932Z,98.90
2022-10-01T10:31:13.414Z,98.80
2022-10-01T10:32:13.613Z,98.60
2022-10-01T10:33:13.612Z,98.20
2022-10-01T10:34:13.647Z,97.90
2022-10-01T10:35:13.783Z,97.90
2022-10-01T10:36:14.263Z,97.90
2022-10-01T10:37:13.304Z,97.60
2022-10-01T10:38:13.199Z,97.80
2022-10-01T10:39:13.653Z,97.10
2022-10-01T10:40:13.575Z,97.10
2022-10-01T10:41:13.752Z,96.70
2022-10-01T10:42:13.793Z,96.80
2022-10-01T10:43:13.923Z,96.70
2022-10-01T10:44:12.911Z,96.40
2022-10-01T10:45:12.874Z,96.60
2022-10-01T10:46:13.918Z,96.20
2022-10-01T10:47:13.381Z,95.90
2022-10-01T10:48:13.465Z,95.80
2022-10-01T10:49:13.636Z,95.10
2022-10-01T10:50:14.015Z,94.40
2022-10-01T10:51:12.984Z,93.80
2022-10-01T10:52:13.161Z,93.00
2022-10-01T10:53:13.237Z,88.80
2022-10-01T10:54:13.226Z,85.60
2022-10-01T10:55:13.289Z,84.30
2022-10-01T10:56:13.197Z,82.30
2022-10-01T10:57:13.136Z,82.90
2022-10-01T10:58:13.098Z,80.90
2022-10-01T10:59:13.157Z,79.10
2022-10-01T11:00:18.232Z,79.10
2022-10-01T11:01:13.831Z,80.90
2022-10-01T11:02:12.854Z,79.70
2022-10-01T11:03:14.165Z,78.30
2022-10-01T11:04:18.111Z,80.00
2022-10-01T11:05:13.374Z,81.00
2022-10-01T11:06:13.559Z,79.60
2022-10-01T11:07:14.005Z,79.80
2022-10-01T11:08:17.695Z,82.50
2022-10-01T11:09:13.222Z,84.10
2022-10-01T11:10:13.297Z,80.60
2022-10-01T11:11:13.617Z,77.00
2022-10-01T11:12:13.637Z,76.40
2022-10-01T11:13:13.590Z,78.90
2022-10-01T11:14:13.507Z,82.40
2022-10-01T11:15:13.419Z,82.70
2022-10-01T11:16:13.557Z,83.30
2022-10-01T11:17:14.024Z,83.90
2022-10-01T11:18:13.159Z,78.80
2022-10-01T11:19:14.680Z,82.10
2022-10-01T11:20:18.564Z,82.50
2022-10-01T11:21:14.310Z,83.80
2022-10-01T11:22:13.653Z,85.20
2022-10-01T11:23:13.980Z,85.50
2022-10-01T11:24:13.297Z,85.90
2022-10-01T11:25:13.371Z,83.90
2022-10-01T11:26:13.313Z,83.70
2022-10-01T11:27:13.521Z,85.00
2022-10-01T11:28:13.586Z,85.30
2022-10-01T11:29:14.193Z,85.00
2022-10-01T11:30:13.410Z,84.40
2022-10-01T11:31:13.438Z,84.30
2022-10-01T11:32:13.601Z,84.70
2022-10-01T11:33:13.433Z,82.70
2022-10-01T11:34:13.741Z,81.80
2022-10-01T11:35:13.802Z,80.80
2022-10-01T11:36:13.816Z,79.00
2022-10-01T11:37:14.051Z,76.80
2022-10-01T11:38:13.339Z,75.50
2022-10-01T11:39:13.295Z,76.40
2022-10-01T11:40:13.320Z,75.90
2022-10-01T11:41:13.382Z,75.60
2022-10-01T11:42:13.687Z,76.60
2022-10-01T11:43:13.683Z,76.60
2022-10-01T11:44:13.608Z,77.10
2022-10-01T11:45:13.991Z,78.70
2022-10-01T11:46:12.980Z,80.10
2022-10-01T11:47:14.517Z,77.60
2022-10-01T11:48:13.826Z,79.10
2022-10-01T11:49:16.504Z,78.50
2022-10-01T11:50:13.586Z,79.70
2022-10-01T11:52:13.062Z,74.50
2022-10-01T11:53:13.957Z,72.10
2022-10-01T11:54:13.032Z,71.60
2022-10-01T11:55:13.359Z,72.20
2022-10-01T11:57:13.496Z,70.50
2022-10-01T11:58:13.524Z,70.20
2022-10-01T11:59:15.069Z,68.60
2022-10-01T12:00:12.966Z,67.30
2022-10-01T12:01:13.339Z,66.60
2022-10-01T12:02:13.746Z,68.80
2022-10-01T12:03:14.315Z,68.10
2022-10-01T12:04:13.327Z,69.90
2022-10-01T12:05:14.377Z,71.30
2022-10-01T12:06:13.377Z,70.70
2022-10-01T12:07:13.692Z,71.20
2022-10-01T12:08:13.928Z,72.10
2022-10-01T12:09:12.955Z,74.10
2022-10-01T12:10:13.032Z,73.90
2022-10-01T12:11:13.031Z,73.90
2022-10-01T12:12:12.945Z,72.20
2022-10-01T12:13:36.307Z,72.80
2022-10-01T12:14:36.910Z,73.10
2022-10-01T12:15:13.332Z,74.40
2022-10-01T12:16:13.658Z,74.00
2022-10-01T12:17:13.835Z,74.50
2022-10-01T12:18:14.022Z,74.70
2022-10-01T12:19:16.258Z,75.20
2022-10-01T12:20:13.439Z,76.40
2022-10-01T12:21:13.517Z,77.80
2022-10-01T12:22:13.732Z,80.50
2022-10-01T12:23:14.235Z,84.50
2022-10-01T12:24:13.111Z,86.40
2022-10-01T12:26:14.342Z,91.40
2022-10-01T12:27:13.647Z,92.70
2022-10-01T12:28:14.098Z,93.00
2022-10-01T12:29:14.418Z,94.20
2022-10-01T12:30:13.502Z,94.10
2022-10-01T12:34:19.266Z,95.20
2022-10-01T12:35:23.966Z,94.70
2022-10-01T12:36:18.021Z,93.90
2022-10-01T12:37:15.053Z,94.10
2022-10-01T12:38:21.782Z,92.60
2022-10-01T12:39:13.941Z,92.30
2022-10-01T12:40:23.595Z,91.40
2022-10-01T12:42:14.728Z,91.20
2022-10-01T12:43:31.989Z,92.00
2022-10-01T12:44:23.358Z,91.00
2022-10-01T12:45:13.926Z,91.70
2022-10-01T12:46:23.987Z,91.20
2022-10-01T12:47:18.020Z,92.10
2022-10-01T12:48:18.081Z,91.70
2022-10-01T12:49:12.999Z,91.40
2022-10-01T12:50:12.971Z,91.30
2022-10-01T12:51:12.973Z,91.60
2022-10-01T12:52:18.250Z,92.00
2022-10-01T12:53:13.327Z,89.70
2022-10-01T12:54:13.535Z,89.50
2022-10-01T12:55:13.748Z,89.50
2022-10-01T12:56:13.825Z,89.70
2022-10-01T12:57:20.225Z,88.00
2022-10-01T12:58:13.420Z,88.20
2022-10-01T12:59:13.873Z,86.90
2022-10-01T13:00:14.132Z,86.50
2022-10-01T13:01:13.138Z,87.50
2022-10-01T13:02:13.700Z,86.50
2022-10-01T13:03:47.806Z,85.90
2022-10-01T13:04:18.963Z,87.20
2022-10-01T13:05:23.449Z,85.40
2022-10-01T13:06:13.583Z,85.30